Time;durP1;ratioP1;P1;durP2;ratioP2;P2;SDS_P1;SDS_P2;PMS_P1;PMS_P2;Temp;Humidity;BMP_temperature;BMP_pressure;BME280_temperature;BME280_humidity;BME280_pressure;Samples;Min_cycle;Max_cycle;Signal;HPM_P1;HPM_P2
2022/12/14 00:01:19;;;;;;;13.50;10.32;;;2.80;84.60;;;;;;5033369;28;20182;-63
2022/12/14 00:03:46;;;;;;;17.73;11.88;;;2.70;83.80;;;;;;5031098;28;20184;-63
2022/12/14 00:06:13;;;;;;;13.68;10.77;;;2.70;83.60;;;;;;5033803;28;20645;-63
2022/12/14 00:08:40;;;;;;;14.18;11.07;;;2.70;84.00;;;;;;5032073;28;20176;-69
2022/12/14 00:11:06;;;;;;;14.48;10.25;;;2.80;86.20;;;;;;5033082;28;20185;-63
2022/12/14 00:13:32;;;;;;;11.95;10.07;;;2.80;86.30;;;;;;5033576;28;20187;-67
2022/12/14 00:15:58;;;;;;;13.48;11.38;;;2.80;86.50;;;;;;5031348;28;20205;-63
2022/12/14 00:18:23;;;;;;;19.00;12.40;;;2.70;86.30;;;;;;5032898;28;20242;-63
2022/12/14 00:20:49;;;;;;;16.03;10.73;;;2.80;86.70;;;;;;5031958;28;20192;-64
2022/12/14 00:23:15;;;;;;;13.83;10.20;;;2.70;86.70;;;;;;5033213;28;20222;-63
2022/12/14 00:25:40;;;;;;;13.37;10.67;;;2.80;86.10;;;;;;5031998;28;20182;-64
2022/12/14 00:28:06;;;;;;;14.57;10.37;;;2.70;85.80;;;;;;5032405;28;20459;-63
2022/12/14 00:30:32;;;;;;;14.83;10.13;;;2.70;85.70;;;;;;5032637;28;20193;-63
2022/12/14 00:32:58;;;;;;;13.03;10.50;;;2.70;85.10;;;;;;5032406;28;20409;-64
2022/12/14 00:35:23;;;;;;;11.70;9.10;;;2.70;84.40;;;;;;5032509;28;20205;-63
2022/12/14 00:37:49;;;;;;;11.63;9.70;;;2.70;83.70;;;;;;5030534;28;20542;-63
2022/12/14 00:40:15;;;;;;;13.80;9.07;;;2.70;84.00;;;;;;5033134;28;20220;-64
2022/12/14 00:42:41;;;;;;;13.37;9.43;;;2.60;83.10;;;;;;5031521;28;20191;-68
2022/12/14 00:45:08;;;;;;;13.23;9.70;;;2.60;82.90;;;;;;5030108;28;20186;-63
2022/12/14 00:47:33;;;;;;;10.10;9.00;;;2.60;82.80;;;;;;5032675;28;20207;-63
2022/12/14 00:49:59;;;;;;;10.30;7.80;;;2.60;83.00;;;;;;5027815;28;20185;-63
2022/12/14 00:52:25;;;;;;;10.93;8.60;;;2.70;83.40;;;;;;5029790;28;20180;-63
2022/12/14 00:54:50;;;;;;;11.10;8.77;;;2.70;83.20;;;;;;5031145;28;20240;-63
2022/12/14 00:57:16;;;;;;;9.47;8.47;;;2.80;83.40;;;;;;5030932;28;20243;-63
2022/12/14 00:59:42;;;;;;;11.30;8.97;;;2.80;82.60;;;;;;5030397;28;20267;-70
2022/12/14 01:02:07;;;;;;;10.07;8.40;;;2.80;81.10;;;;;;5031471;28;20181;-63
2022/12/14 01:04:33;;;;;;;9.47;7.90;;;2.80;80.70;;;;;;5032051;28;20634;-63
2022/12/14 01:06:59;;;;;;;9.63;8.00;;;2.80;79.60;;;;;;5029293;28;20447;-63
2022/12/14 01:09:26;;;;;;;9.43;7.93;;;2.80;79.90;;;;;;5029670;28;20199;-64
2022/12/14 01:11:52;;;;;;;10.32;7.65;;;2.90;79.70;;;;;;5030746;28;20186;-63
2022/12/14 01:14:19;;;;;;;8.98;8.02;;;2.90;80.00;;;;;;5032088;28;20200;-63
2022/12/14 01:16:45;;;;;;;8.02;7.22;;;2.80;79.60;;;;;;5029975;28;20512;-63
2022/12/14 01:19:13;;;;;;;8.35;7.50;;;2.80;78.90;;;;;;5031872;28;20198;-63
2022/12/14 01:21:39;;;;;;;9.88;7.60;;;2.50;77.40;;;;;;5030953;28;20277;-63
2022/12/14 01:24:05;;;;;;;10.38;7.03;;;2.10;77.40;;;;;;5029393;28;20662;-63
2022/12/14 01:26:36;;;;;;;10.77;7.93;;;2.00;78.80;;;;;;5031593;28;20230;-63
2022/12/14 01:29:03;;;;;;;8.77;7.10;;;1.80;79.60;;;;;;5029240;28;20779;-63
2022/12/14 01:31:31;;;;;;;9.38;7.65;;;1.60;80.40;;;;;;5029914;28;20655;-63
2022/12/14 01:33:57;;;;;;;8.52;7.25;;;1.40;81.60;;;;;;5030842;28;20258;-63
2022/12/14 01:36:26;;;;;;;9.68;6.68;;;1.60;83.40;;;;;;5030922;28;20202;-63
2022/12/14 01:38:55;;;;;;;9.15;7.40;;;1.60;82.50;;;;;;5030263;28;20505;-64
2022/12/14 01:41:29;;;;;;;7.90;6.38;;;1.40;82.10;;;;;;5030346;28;20181;-63
2022/12/14 01:44:01;;;;;;;7.45;6.65;;;1.20;82.70;;;;;;5030796;28;20621;-63
2022/12/14 01:46:45;;;;;;;8.10;6.97;;;1.20;84.10;;;;;;5030303;28;20195;-63
2022/12/14 01:49:34;;;;;;;8.45;7.45;;;1.30;84.70;;;;;;5020135;28;20180;-63
2022/12/14 01:52:03;;;;;;;7.63;6.75;;;1.60;85.10;;;;;;5030935;28;20176;-63
2022/12/14 01:54:31;;;;;;;8.10;6.93;;;1.70;84.90;;;;;;5031305;28;20215;-63
2022/12/14 01:56:58;;;;;;;7.80;6.65;;;1.90;84.30;;;;;;5030530;28;20202;-63
2022/12/14 01:59:31;;;;;;;8.95;7.30;;;1.90;84.30;;;;;;5032098;28;20184;-63
2022/12/14 02:01:59;;;;;;;8.00;7.20;;;2.00;83.10;;;;;;5031013;28;20184;-63
2022/12/14 02:04:25;;;;;;;8.05;6.65;;;2.00;81.80;;;;;;5031184;28;20188;-63
2022/12/14 02:06:52;;;;;;;8.30;6.37;;;1.80;81.20;;;;;;5030140;28;20537;-63
2022/12/14 02:09:24;;;;;;;8.63;7.72;;;1.60;82.40;;;;;;5031967;28;20517;-63
2022/12/14 02:12:03;;;;;;;12.60;6.93;;;1.70;84.10;;;;;;5030455;28;20231;-63
2022/12/14 02:14:29;;;;;;;7.47;6.70;;;1.80;84.10;;;;;;5031192;28;20235;-63
2022/12/14 02:16:56;;;;;;;7.47;5.82;;;1.90;83.70;;;;;;5031085;28;20175;-63
2022/12/14 02:19:23;;;;;;;9.77;6.75;;;1.90;82.60;;;;;;5030893;28;20259;-63
2022/12/14 02:22:08;;;;;;;7.70;6.68;;;2.00;82.50;;;;;;5012052;28;20656;-63
2022/12/14 02:25:07;;;;;;;8.60;6.32;;;2.00;82.40;;;;;;5031441;28;20174;-63
2022/12/14 02:27:56;;;;;;;7.10;6.40;;;2.10;82.10;;;;;;5031943;28;20238;-63
2022/12/14 02:30:29;;;;;;;7.10;5.80;;;2.20;82.00;;;;;;5031157;28;20656;-63
2022/12/14 02:33:19;;;;;;;6.65;5.95;;;1.70;81.00;;;;;;5030549;28;20240;-63
2022/12/14 02:36:07;;;;;;;6.85;5.90;;;2.10;81.20;;;;;;5030593;28;20288;-69
2022/12/14 02:38:54;;;;;;;5.32;4.82;;;2.20;82.30;;;;;;5031447;28;20609;-63
2022/12/14 02:41:50;;;;;;;6.45;5.78;;;2.20;80.70;;;;;;5035114;28;20184;-64
2022/12/14 02:44:36;;;;;;;5.85;5.00;;;2.30;79.60;;;;;;5033345;28;20199;-63
2022/12/14 02:47:24;;;;;;;7.05;5.40;;;2.00;78.70;;;;;;5032127;28;20588;-63
2022/12/14 02:50:22;;;;;;;6.32;5.30;;;2.40;79.20;;;;;;5034433;28;20186;-70
2022/12/14 02:53:25;;;;;;;6.35;5.63;;;2.50;78.40;;;;;;5014885;28;20196;-64
2022/12/14 02:55:52;;;;;;;5.40;4.80;;;2.40;78.10;;;;;;5014810;28;20211;-64
2022/12/14 02:58:26;;;;;;;7.05;5.53;;;2.40;78.50;;;;;;5027098;28;20184;-63
2022/12/14 03:00:54;;;;;;;5.47;4.95;;;2.40;78.70;;;;;;5033463;28;20184;-64
2022/12/14 03:03:20;;;;;;;5.22;4.30;;;2.40;77.70;;;;;;5034894;28;20657;-63
2022/12/14 03:06:13;;;;;;;5.65;4.80;;;2.40;77.50;;;;;;5033782;28;20274;-69
2022/12/14 03:08:43;;;;;;;5.18;4.68;;;2.50;78.00;;;;;;5034425;28;20237;-63
2022/12/14 03:11:13;;;;;;;5.80;5.30;;;2.30;77.40;;;;;;5033327;28;20266;-63
2022/12/14 03:13:59;;;;;;;5.90;5.03;;;2.40;77.30;;;;;;5034756;28;20156;-63
2022/12/14 03:16:32;;;;;;;6.10;5.13;;;2.40;77.50;;;;;;5034121;28;20351;-63
2022/12/14 03:19:06;;;;;;;8.77;5.00;;;2.40;77.20;;;;;;5033348;28;20314;-63
2022/12/14 03:21:38;;;;;;;5.18;4.68;;;2.40;78.10;;;;;;5034569;28;20269;-63
2022/12/14 03:24:09;;;;;;;6.20;4.80;;;2.40;77.50;;;;;;5033460;28;20303;-63
2022/12/14 03:26:48;;;;;;;6.40;5.72;;;2.40;77.00;;;;;;5034522;28;20539;-63
2022/12/14 03:29:36;;;;;;;5.80;5.20;;;2.40;77.10;;;;;;5033056;28;20190;-63
2022/12/14 03:32:07;;;;;;;5.00;4.50;;;2.40;77.50;;;;;;5033313;28;20195;-63
2022/12/14 03:34:38;;;;;;;7.30;5.47;;;2.40;77.30;;;;;;5033839;28;22189;-63
2022/12/14 03:37:18;;;;;;;5.00;4.50;;;2.40;77.70;;;;;;5033559;28;20254;-63
2022/12/14 03:39:45;;;;;;;5.28;4.78;;;2.40;77.20;;;;;;5033746;28;20183;-63
2022/12/14 03:42:22;;;;;;;5.80;5.10;;;2.40;76.10;;;;;;5032672;28;20664;-63
2022/12/14 03:44:58;;;;;;;5.05;4.65;;;2.50;76.10;;;;;;5034186;28;20188;-68
2022/12/14 03:47:58;;;;;;;5.40;4.95;;;2.50;76.70;;;;;;5033627;28;20175;-63
2022/12/14 03:50:36;;;;;;;4.95;4.45;;;2.50;76.40;;;;;;5031947;28;20637;-63
2022/12/14 03:53:14;;;;;;;5.10;4.60;;;2.60;75.90;;;;;;5015118;28;20272;-63
2022/12/14 03:55:53;;;;;;;4.70;4.30;;;2.60;75.30;;;;;;5034265;28;20199;-63
2022/12/14 03:58:34;;;;;;;4.20;3.90;;;2.60;75.00;;;;;;5014408;28;20175;-63
2022/12/14 04:01:06;;;;;;;5.43;4.50;;;2.50;74.40;;;;;;5026143;28;20204;-64
2022/12/14 04:03:41;;;;;;;4.45;4.13;;;2.60;74.20;;;;;;5033309;28;20190;-63
2022/12/14 04:06:34;;;;;;;4.90;4.40;;;2.60;73.50;;;;;;5033258;28;20532;-63
2022/12/14 04:09:09;;;;;;;4.80;4.18;;;2.50;72.30;;;;;;5013111;28;20639;-64
2022/12/14 04:20:18;;;;;;;4.85;4.40;;;2.40;73.70;;;;;;5032752;28;20181;-63
2022/12/14 04:22:51;;;;;;;4.70;4.40;;;2.50;74.40;;;;;;5033565;28;20243;-63
2022/12/14 04:31:36;;;;;;;5.70;5.20;;;2.50;73.50;;;;;;5033662;28;20218;-63
2022/12/14 04:34:04;;;;;;;5.60;5.10;;;2.50;73.40;;;;;;5031259;28;20181;-64
2022/12/14 04:36:50;;;;;;;5.53;4.78;;;2.50;74.30;;;;;;5033331;28;20180;-63
2022/12/14 04:39:26;;;;;;;4.97;4.47;;;2.50;73.50;;;;;;5033036;28;20176;-63
2022/12/14 04:41:57;;;;;;;5.10;4.70;;;2.50;74.00;;;;;;5032772;28;20169;-64
2022/12/14 04:44:34;;;;;;;5.20;4.80;;;2.60;74.20;;;;;;5032447;28;20173;-63
2022/12/14 04:47:01;;;;;;;5.47;4.97;;;2.60;74.20;;;;;;5011657;28;20268;-63
2022/12/14 04:49:52;;;;;;;5.63;4.55;;;2.60;74.00;;;;;;5013489;28;20199;-63
2022/12/14 04:52:29;;;;;;;6.50;4.63;;;2.70;74.40;;;;;;5016929;28;20186;-63
2022/12/14 04:55:32;;;;;;;5.82;5.32;;;2.70;75.40;;;;;;5030472;28;20216;-68
2022/12/14 04:58:04;;;;;;;4.40;4.10;;;2.70;76.30;;;;;;5010816;28;20554;-63
2022/12/14 05:00:34;;;;;;;4.40;4.05;;;2.70;76.20;;;;;;5013347;28;20180;-63
2022/12/14 05:03:28;;;;;;;5.38;4.28;;;2.70;76.20;;;;;;5011645;28;20163;-63
2022/12/14 05:06:20;;;;;;;4.78;4.38;;;2.60;76.50;;;;;;5016292;28;20195;-69
2022/12/14 05:09:21;;;;;;;4.70;4.30;;;2.60;77.00;;;;;;5032981;28;20166;-64
2022/12/14 05:11:53;;;;;;;5.30;4.30;;;2.60;76.60;;;;;;5011167;28;20197;-62
2022/12/14 05:14:42;;;;;;;5.25;4.85;;;2.60;76.70;;;;;;5012407;28;20218;-63
2022/12/14 05:17:08;;;;;;;5.60;5.10;;;2.60;77.00;;;;;;5022870;28;20215;-62
2022/12/14 05:19:34;;;;;;;5.70;5.27;;;2.70;77.00;;;;;;5032588;28;20169;-63
2022/12/14 05:22:09;;;;;;;5.23;4.73;;;2.60;75.40;;;;;;5030379;28;20459;-63
2022/12/14 05:24:35;;;;;;;5.20;4.70;;;2.30;74.90;;;;;;5031557;28;20191;-62
2022/12/14 05:27:00;;;;;;;5.90;5.23;;;2.60;75.40;;;;;;5031594;28;20668;-63
2022/12/14 05:29:26;;;;;;;6.33;5.83;;;2.60;75.30;;;;;;5032262;28;20415;-62
2022/12/14 05:31:52;;;;;;;5.27;4.97;;;2.60;74.80;;;;;;5032611;28;20215;-62
2022/12/14 05:34:17;;;;;;;5.30;4.57;;;2.70;75.50;;;;;;5030575;28;20215;-63
2022/12/14 05:36:43;;;;;;;4.70;4.30;;;2.70;76.30;;;;;;5032818;28;20186;-62
2022/12/14 05:39:09;;;;;;;4.60;4.20;;;2.70;76.40;;;;;;5031658;28;20176;-63
2022/12/14 05:41:35;;;;;;;5.13;4.73;;;2.70;75.00;;;;;;5032319;28;20422;-63
2022/12/14 05:44:00;;;;;;;5.50;5.00;;;2.80;74.70;;;;;;5029044;28;20174;-65
2022/12/14 05:46:26;;;;;;;6.07;5.63;;;2.80;74.00;;;;;;5028207;28;20173;-63
2022/12/14 05:48:52;;;;;;;6.20;5.70;;;2.80;73.50;;;;;;5030098;28;20188;-63
2022/12/14 05:51:18;;;;;;;6.05;4.63;;;2.80;73.40;;;;;;5031695;28;20578;-63
2022/12/14 05:53:43;;;;;;;5.00;4.57;;;2.90;73.80;;;;;;5032249;28;20186;-63
2022/12/14 05:56:10;;;;;;;5.03;4.63;;;2.90;73.10;;;;;;5029504;28;20205;-63
2022/12/14 05:58:36;;;;;;;5.90;5.50;;;2.70;72.60;;;;;;5030970;28;20255;-63
2022/12/14 06:01:08;;;;;;;6.85;6.25;;;2.90;72.80;;;;;;5030885;28;20204;-63
2022/12/14 06:03:34;;;;;;;6.88;5.60;;;2.90;72.50;;;;;;5046273;28;20201;-63
2022/12/14 06:06:04;;;;;;;6.90;5.43;;;2.90;71.40;;;;;;5043918;28;20215;-63
2022/12/14 06:08:32;;;;;;;8.25;5.53;;;2.90;71.10;;;;;;5032466;28;20169;-63
2022/12/14 06:11:18;;;;;;;6.10;5.65;;;2.90;71.70;;;;;;5031856;28;20183;-64
2022/12/14 06:13:44;;;;;;;5.88;5.30;;;2.90;73.60;;;;;;5034358;28;20197;-62
2022/12/14 06:16:20;;;;;;;5.85;4.93;;;2.90;75.10;;;;;;5034027;28;20208;-63
2022/12/14 06:18:49;;;;;;;8.10;5.47;;;2.90;77.10;;;;;;5036383;28;20581;-63
2022/12/14 06:21:18;;;;;;;5.63;5.22;;;2.90;76.90;;;;;;5035743;28;20260;-62
2022/12/14 06:23:44;;;;;;;6.50;5.82;;;2.90;77.30;;;;;;5036369;28;20545;-63
2022/12/14 06:26:10;;;;;;;5.17;4.77;;;2.90;78.00;;;;;;5035101;28;20203;-66
2022/12/14 06:28:36;;;;;;;5.90;5.43;;;2.80;77.60;;;;;;5034922;28;20431;-63
2022/12/14 06:31:02;;;;;;;6.00;5.40;;;2.80;76.90;;;;;;5031270;28;20247;-63
2022/12/14 06:33:28;;;;;;;6.65;6.15;;;2.80;77.20;;;;;;5029360;28;20264;-63
2022/12/14 06:35:54;;;;;;;6.10;5.60;;;2.80;78.00;;;;;;5040512;28;20209;-63
2022/12/14 06:38:20;;;;;;;6.15;5.55;;;2.80;79.00;;;;;;5050686;28;20547;-63
2022/12/14 06:40:46;;;;;;;6.23;5.40;;;2.80;77.40;;;;;;5043968;28;20196;-63
2022/12/14 06:43:14;;;;;;;6.10;5.15;;;2.90;75.90;;;;;;5046593;28;20184;-63
2022/12/14 06:45:40;;;;;;;6.47;5.00;;;2.80;75.90;;;;;;5031133;28;20193;-64
2022/12/14 06:48:06;;;;;;;6.87;6.27;;;2.80;76.70;;;;;;5030888;28;20440;-64
2022/12/14 06:50:32;;;;;;;6.57;5.70;;;2.80;77.20;;;;;;5035333;28;20644;-63
2022/12/14 06:52:58;;;;;;;6.63;4.97;;;2.90;77.80;;;;;;5035327;28;20427;-63
2022/12/14 06:55:25;;;;;;;5.27;4.77;;;2.90;78.50;;;;;;5034447;28;20212;-63
2022/12/14 06:57:52;;;;;;;6.85;5.53;;;2.90;79.70;;;;;;5035324;28;20756;-63
2022/12/14 07:00:19;;;;;;;9.20;5.95;;;2.90;80.00;;;;;;5029922;28;20576;-63
2022/12/14 07:02:45;;;;;;;7.18;6.20;;;2.90;77.90;;;;;;5033745;28;20186;-62
2022/12/14 07:05:11;;;;;;;6.50;5.90;;;2.90;76.40;;;;;;5032717;28;20582;-63
2022/12/14 07:07:37;;;;;;;7.00;5.30;;;2.90;77.00;;;;;;5031708;28;20185;-64
2022/12/14 07:10:04;;;;;;;7.57;5.53;;;2.90;77.60;;;;;;5039326;28;20197;-70
2022/12/14 07:12:30;;;;;;;6.22;5.63;;;2.90;78.00;;;;;;5055325;28;20172;-64
2022/12/14 07:14:57;;;;;;;9.48;5.45;;;2.90;79.60;;;;;;5041153;28;20646;-64
2022/12/14 07:17:23;;;;;;;5.85;5.35;;;2.90;79.60;;;;;;5033403;28;20182;-64
2022/12/14 07:19:48;;;;;;;6.73;4.73;;;2.90;79.30;;;;;;5035712;28;20175;-64
2022/12/14 07:22:14;;;;;;;5.63;5.13;;;2.90;79.50;;;;;;5039857;28;20229;-67
2022/12/14 07:24:40;;;;;;;5.47;5.03;;;2.90;79.10;;;;;;5034747;28;20192;-64
2022/12/14 07:27:06;;;;;;;6.40;5.67;;;3.00;77.90;;;;;;5036394;28;20657;-64
2022/12/14 07:29:33;;;;;;;5.55;5.05;;;3.10;78.30;;;;;;5033849;28;20195;-64
2022/12/14 07:31:59;;;;;;;6.60;6.00;;;3.10;78.00;;;;;;5035066;28;20185;-63
2022/12/14 07:34:25;;;;;;;5.87;5.30;;;3.10;78.00;;;;;;5034391;28;20205;-64
2022/12/14 07:36:52;;;;;;;6.50;5.90;;;3.10;78.10;;;;;;5033824;28;20908;-63
2022/12/14 07:39:19;;;;;;;5.93;5.25;;;3.10;78.10;;;;;;5033523;28;20540;-63
2022/12/14 07:41:46;;;;;;;6.55;5.95;;;3.10;78.10;;;;;;5034790;28;20193;-64
2022/12/14 07:44:12;;;;;;;6.70;5.57;;;3.10;78.90;;;;;;5033940;28;20190;-63
2022/12/14 07:46:39;;;;;;;6.78;6.07;;;3.10;78.60;;;;;;5034842;28;20177;-64
2022/12/14 07:49:06;;;;;;;6.53;5.93;;;3.10;79.70;;;;;;5033615;28;20190;-64
2022/12/14 07:51:35;;;;;;;7.65;6.63;;;3.20;80.00;;;;;;5034358;28;20265;-67
2022/12/14 07:54:02;;;;;;;7.18;6.47;;;3.20;79.00;;;;;;5034578;28;20189;-67
2022/12/14 07:56:31;;;;;;;10.68;7.25;;;3.20;77.40;;;;;;5032243;28;20182;-64
2022/12/14 07:58:58;;;;;;;8.23;5.80;;;3.20;77.90;;;;;;5037430;28;20521;-65
2022/12/14 08:01:27;;;;;;;9.68;5.93;;;3.20;78.50;;;;;;5032830;28;20186;-70
2022/12/14 08:03:56;;;;;;;8.38;6.65;;;3.20;78.80;;;;;;5032200;28;20591;-64
2022/12/14 08:06:24;;;;;;;8.82;6.35;;;3.20;78.80;;;;;;5031654;28;20256;-65
2022/12/14 08:08:50;;;;;;;7.68;6.28;;;3.20;78.20;;;;;;5034377;28;20185;-65
2022/12/14 08:11:16;;;;;;;7.13;6.47;;;3.20;78.30;;;;;;5029900;28;20185;-65
2022/12/14 08:13:42;;;;;;;7.30;6.60;;;3.20;78.30;;;;;;5031105;28;20182;-65
2022/12/14 08:16:14;;;;;;;10.95;7.03;;;3.20;78.80;;;;;;5037327;28;20296;-70
2022/12/14 08:18:41;;;;;;;10.27;6.45;;;3.20;77.70;;;;;;5031576;28;20181;-64
2022/12/14 08:21:09;;;;;;;7.85;6.43;;;3.30;77.50;;;;;;5028930;28;20177;-65
2022/12/14 08:23:35;;;;;;;8.02;6.70;;;3.20;78.90;;;;;;5033754;28;20221;-64
2022/12/14 08:26:03;;;;;;;8.10;6.80;;;3.10;79.80;;;;;;5033448;28;20220;-64
2022/12/14 08:28:30;;;;;;;9.48;7.28;;;3.10;81.50;;;;;;5029107;28;20191;-64
2022/12/14 08:30:57;;;;;;;8.23;6.32;;;3.10;81.50;;;;;;5029392;28;20182;-64
2022/12/14 08:33:23;;;;;;;7.97;6.68;;;3.10;82.50;;;;;;5032941;28;20209;-64
2022/12/14 08:35:49;;;;;;;7.18;6.47;;;3.10;82.10;;;;;;5032887;28;20201;-63
2022/12/14 08:38:15;;;;;;;8.50;6.40;;;3.30;81.50;;;;;;5031284;28;20194;-63
2022/12/14 08:40:41;;;;;;;8.47;6.33;;;3.20;82.00;;;;;;5033807;28;20213;-64
2022/12/14 08:43:08;;;;;;;8.77;7.97;;;3.20;82.30;;;;;;5033160;28;20428;-64
2022/12/14 08:45:34;;;;;;;8.43;7.65;;;3.20;81.10;;;;;;5043867;28;20511;-63
2022/12/14 08:48:00;;;;;;;6.20;5.70;;;3.20;80.20;;;;;;5033004;28;20531;-63
2022/12/14 08:50:28;;;;;;;7.60;6.45;;;3.20;79.00;;;;;;5032034;28;20255;-63
2022/12/14 08:52:54;;;;;;;11.23;7.20;;;3.20;78.20;;;;;;5032508;28;20192;-63
2022/12/14 08:55:20;;;;;;;8.38;6.88;;;3.20;78.40;;;;;;5032812;28;20212;-63
2022/12/14 08:57:46;;;;;;;9.27;7.40;;;3.20;79.30;;;;;;5031805;28;20189;-63
2022/12/14 09:00:13;;;;;;;9.50;7.22;;;3.10;79.60;;;;;;5032046;28;20181;-64
2022/12/14 09:02:38;;;;;;;6.88;6.28;;;3.20;80.30;;;;;;5032699;28;20184;-63
2022/12/14 09:05:05;;;;;;;9.30;7.20;;;3.20;79.60;;;;;;5030441;28;20652;-64
2022/12/14 09:07:31;;;;;;;8.13;7.25;;;3.20;78.90;;;;;;5035846;28;20669;-63
2022/12/14 09:09:57;;;;;;;8.07;7.05;;;3.20;79.10;;;;;;5030900;28;20653;-64
2022/12/14 09:12:23;;;;;;;8.85;7.90;;;3.20;78.70;;;;;;5019726;28;20271;-64
2022/12/14 09:14:50;;;;;;;10.30;7.50;;;3.20;77.70;;;;;;5023687;28;20891;-64
2022/12/14 09:17:16;;;;;;;9.68;7.22;;;3.20;78.10;;;;;;5030840;28;20638;-65
2022/12/14 09:19:42;;;;;;;12.52;8.30;;;3.20;79.50;;;;;;5029687;28;20187;-64
2022/12/14 09:22:08;;;;;;;8.60;7.67;;;3.20;78.50;;;;;;5030074;28;20192;-70
2022/12/14 09:24:34;;;;;;;10.93;8.57;;;3.20;77.70;;;;;;5031261;28;20423;-64
2022/12/14 09:27:01;;;;;;;16.88;8.80;;;3.30;77.70;;;;;;5032837;28;20448;-64
2022/12/14 09:29:27;;;;;;;13.20;8.65;;;3.30;77.70;;;;;;5029710;28;20181;-64
2022/12/14 09:31:53;;;;;;;11.05;8.07;;;3.30;79.40;;;;;;5031944;28;20220;-63
2022/12/14 09:34:20;;;;;;;12.93;8.98;;;3.30;79.90;;;;;;5031014;28;20596;-64
2022/12/14 09:36:46;;;;;;;13.00;9.27;;;3.30;79.60;;;;;;5031977;28;20183;-64
2022/12/14 09:39:14;;;;;;;24.70;9.97;;;3.20;79.80;;;;;;5030342;28;20185;-64
2022/12/14 09:41:58;;;;;;;15.95;9.32;;;3.20;81.30;;;;;;5031550;28;20817;-63
2022/12/14 09:44:56;;;;;;;14.65;9.77;;;3.30;82.20;;;;;;5017516;28;20234;-63
2022/12/14 09:47:31;;;;;;;14.30;8.45;;;3.30;82.70;;;;;;5031330;28;20192;-64
2022/12/14 09:50:05;;;;;;;11.18;8.48;;;3.30;83.80;;;;;;5032498;28;20537;-64
2022/12/14 09:52:45;;;;;;;14.95;9.18;;;3.30;84.00;;;;;;5030973;28;20568;-64
2022/12/14 09:55:37;;;;;;;13.55;10.50;;;3.30;83.50;;;;;;5029935;28;20312;-65
2022/12/14 09:58:25;;;;;;;12.88;8.63;;;3.30;83.00;;;;;;5031734;28;20178;-64
2022/12/14 10:01:16;;;;;;;16.90;10.30;;;3.30;82.10;;;;;;5032842;28;20614;-63
2022/12/14 10:04:00;;;;;;;14.05;9.32;;;3.40;81.90;;;;;;5032015;28;20589;-64
2022/12/14 10:06:40;;;;;;;13.15;9.35;;;3.40;81.50;;;;;;5030967;28;20189;-63
2022/12/14 10:09:21;;;;;;;12.50;8.77;;;3.40;82.10;;;;;;5031757;28;20240;-64
2022/12/14 10:12:20;;;;;;;9.27;7.05;;;3.50;81.80;;;;;;5032591;28;20202;-64
2022/12/14 10:14:48;;;;;;;13.10;8.63;;;3.50;81.10;;;;;;5031552;28;20236;-64
2022/12/14 10:17:29;;;;;;;11.00;8.15;;;3.50;79.80;;;;;;5030927;28;20277;-64
2022/12/14 10:19:59;;;;;;;9.65;8.00;;;3.50;80.40;;;;;;5032039;28;20658;-64
2022/12/14 10:22:31;;;;;;;12.27;7.47;;;3.50;80.70;;;;;;5030214;28;20226;-64
2022/12/14 10:25:13;;;;;;;11.73;8.43;;;3.50;81.70;;;;;;5032111;28;20536;-63
2022/12/14 10:27:44;;;;;;;10.82;8.57;;;3.50;81.00;;;;;;5031498;28;20165;-65
2022/12/14 10:30:18;;;;;;;12.23;8.55;;;3.50;80.50;;;;;;5012652;28;20179;-63
2022/12/14 10:33:21;;;;;;;11.43;8.98;;;3.50;80.00;;;;;;5021528;28;20227;-63
2022/12/14 10:36:16;;;;;;;11.68;6.97;;;3.50;79.90;;;;;;5018432;28;20673;-64
2022/12/14 10:38:57;;;;;;;8.35;6.05;;;3.50;79.10;;;;;;5030354;28;20522;-63
2022/12/14 10:41:45;;;;;;;9.77;6.70;;;3.60;79.00;;;;;;5031931;28;20167;-64
2022/12/14 10:44:52;;;;;;;8.52;6.20;;;3.60;79.60;;;;;;5031386;28;20181;-64
2022/12/14 10:47:23;;;;;;;9.15;6.50;;;3.60;78.70;;;;;;5031507;28;20162;-64
2022/12/14 10:50:03;;;;;;;8.35;7.10;;;3.60;80.00;;;;;;5032064;28;20221;-65
2022/12/14 10:52:36;;;;;;;11.55;7.00;;;3.60;79.50;;;;;;5030903;28;20239;-64
2022/12/14 10:55:09;;;;;;;10.43;7.30;;;3.70;78.40;;;;;;5032181;28;20222;-64
2022/12/14 10:57:35;;;;;;;9.73;7.30;;;3.70;77.80;;;;;;5029776;28;20200;-64
2022/12/14 11:00:02;;;;;;;10.87;7.67;;;3.60;78.70;;;;;;5030891;28;20174;-64
2022/12/14 11:02:32;;;;;;;9.65;8.20;;;3.70;79.60;;;;;;5034577;28;20188;-64
2022/12/14 11:05:22;;;;;;;16.98;7.85;;;3.70;79.70;;;;;;5034793;28;20214;-63
2022/12/14 11:07:48;;;;;;;11.07;8.25;;;3.80;81.10;;;;;;5034904;28;20186;-63
2022/12/14 11:10:23;;;;;;;11.63;9.00;;;3.80;81.10;;;;;;5035304;28;20497;-70
2022/12/14 11:13:12;;;;;;;14.25;9.10;;;3.90;81.50;;;;;;5034102;28;20177;-63
2022/12/14 11:15:45;;;;;;;10.57;8.40;;;3.90;80.70;;;;;;5034260;28;20243;-63
2022/12/14 11:18:10;;;;;;;11.85;9.05;;;3.90;79.10;;;;;;5033965;28;20191;-63
2022/12/14 11:20:37;;;;;;;11.77;8.50;;;4.00;79.10;;;;;;5034583;28;20182;-63
2022/12/14 11:23:23;;;;;;;10.98;7.93;;;4.00;79.20;;;;;;5034352;28;20288;-63
2022/12/14 11:25:53;;;;;;;10.02;8.18;;;4.00;79.20;;;;;;5033177;28;20236;-63
2022/12/14 11:28:21;;;;;;;11.48;7.38;;;4.00;79.70;;;;;;5034604;28;20221;-63
2022/12/14 11:31:04;;;;;;;10.85;7.03;;;4.10;78.10;;;;;;5034246;28;20179;-63
2022/12/14 11:33:45;;;;;;;9.90;8.52;;;4.10;77.80;;;;;;5033550;28;20185;-63
2022/12/14 11:36:39;;;;;;;8.73;7.75;;;4.20;77.10;;;;;;5034218;28;20210;-63
2022/12/14 11:39:13;;;;;;;9.98;8.10;;;4.20;79.80;;;;;;5034296;28;20182;-63
2022/12/14 11:41:48;;;;;;;12.07;8.20;;;4.20;81.10;;;;;;5034346;28;20531;-63
2022/12/14 11:44:14;;;;;;;12.75;7.85;;;4.20;80.40;;;;;;5034137;28;20178;-63
2022/12/14 11:47:03;;;;;;;9.27;7.83;;;4.20;78.60;;;;;;5033021;28;20224;-63
2022/12/14 11:49:43;;;;;;;9.82;8.45;;;4.20;78.00;;;;;;5032692;28;20191;-64
2022/12/14 11:52:23;;;;;;;9.13;7.35;;;4.20;78.60;;;;;;5033488;28;20170;-63
2022/12/14 11:54:52;;;;;;;10.52;8.93;;;4.30;77.00;;;;;;5034154;28;20583;-63
2022/12/14 11:57:26;;;;;;;10.10;8.23;;;4.30;76.60;;;;;;5033484;28;20178;-65
2022/12/14 11:59:58;;;;;;;14.40;8.32;;;4.20;76.60;;;;;;5034704;28;20170;-63
2022/12/14 12:02:46;;;;;;;11.02;8.05;;;4.20;78.00;;;;;;5014870;28;20693;-64
2022/12/14 12:05:18;;;;;;;9.02;7.68;;;4.30;77.80;;;;;;5028568;28;20183;-63
2022/12/14 12:07:50;;;;;;;10.35;8.18;;;4.30;76.10;;;;;;5033679;28;20583;-64
2022/12/14 12:10:22;;;;;;;10.95;7.70;;;4.40;75.40;;;;;;5033596;28;20168;-67
2022/12/14 12:12:50;;;;;;;14.07;9.13;;;4.40;75.20;;;;;;5034191;28;20566;-63
2022/12/14 12:15:23;;;;;;;8.70;7.90;;;4.40;75.30;;;;;;5032800;28;20297;-63
2022/12/14 12:17:54;;;;;;;12.07;8.07;;;4.40;75.10;;;;;;5034551;28;20228;-63
2022/12/14 12:20:32;;;;;;;9.18;7.70;;;4.50;76.10;;;;;;5032814;28;20198;-63
2022/12/14 12:23:14;;;;;;;9.10;7.45;;;4.50;77.10;;;;;;5033110;28;20229;-63
2022/12/14 12:25:42;;;;;;;9.38;6.85;;;4.50;77.10;;;;;;5032715;28;20186;-63
2022/12/14 12:28:23;;;;;;;10.32;8.90;;;4.60;77.60;;;;;;5034053;28;20186;-63
2022/12/14 12:30:53;;;;;;;10.30;7.18;;;4.60;77.50;;;;;;5033014;28;20232;-63
2022/12/14 12:33:36;;;;;;;11.45;8.75;;;4.60;76.50;;;;;;5032841;28;20225;-71
2022/12/14 12:36:04;;;;;;;9.32;8.43;;;4.60;77.30;;;;;;5013890;28;20195;-63
2022/12/14 12:38:42;;;;;;;11.70;7.30;;;4.60;77.70;;;;;;5026587;28;20178;-63
2022/12/14 12:41:14;;;;;;;9.57;6.55;;;4.60;76.40;;;;;;5033854;28;20162;-62
2022/12/14 12:44:03;;;;;;;16.92;8.32;;;4.60;78.00;;;;;;5032369;28;20375;-63
2022/12/14 12:46:43;;;;;;;11.02;7.82;;;4.60;78.40;;;;;;5032403;28;20194;-63
2022/12/14 12:49:14;;;;;;;13.32;9.30;;;4.60;76.70;;;;;;5032920;28;20181;-63
2022/12/14 12:51:54;;;;;;;9.63;7.65;;;4.60;76.60;;;;;;5033146;28;20178;-63
2022/12/14 12:54:38;;;;;;;11.82;8.25;;;4.80;78.30;;;;;;5033505;28;20180;-63
2022/12/14 12:57:07;;;;;;;10.15;8.35;;;4.60;77.80;;;;;;5018462;28;20253;-62
2022/12/14 12:59:37;;;;;;;8.70;7.80;;;4.60;78.50;;;;;;5019543;28;20531;-63
2022/12/14 13:02:33;;;;;;;11.88;8.65;;;4.60;79.50;;;;;;5033500;28;20175;-63
2022/12/14 13:05:04;;;;;;;13.32;8.60;;;4.70;81.60;;;;;;5013622;28;20183;-63
2022/12/14 13:07:40;;;;;;;13.13;9.45;;;4.60;79.90;;;;;;5023559;28;20177;-63
2022/12/14 13:10:40;;;;;;;12.80;8.32;;;4.60;80.20;;;;;;5032525;28;20631;-63
2022/12/14 13:13:12;;;;;;;9.32;7.55;;;4.60;80.60;;;;;;5010149;28;20258;-63
2022/12/14 13:15:47;;;;;;;11.18;8.40;;;4.60;81.40;;;;;;5031537;28;20198;-63
2022/12/14 13:18:29;;;;;;;10.55;8.95;;;4.50;80.80;;;;;;5012270;28;20286;-63
2022/12/14 13:20:55;;;;;;;10.80;8.88;;;4.50;82.20;;;;;;5028638;28;20186;-63
2022/12/14 13:23:24;;;;;;;10.90;9.13;;;4.50;82.80;;;;;;5031576;28;20229;-63
2022/12/14 13:26:08;;;;;;;11.70;9.00;;;4.50;82.30;;;;;;5032238;28;20174;-63
2022/12/14 13:29:18;;;;;;;10.10;8.50;;;4.50;82.90;;;;;;5031149;28;20277;-63
2022/12/14 13:31:58;;;;;;;14.45;8.50;;;4.50;84.10;;;;;;4974338;28;20172;-63
2022/12/14 13:34:39;;;;;;;12.60;8.70;;;4.40;83.60;;;;;;4989592;28;20211;-63
2022/12/14 13:37:36;;;;;;;17.98;9.65;;;4.40;84.40;;;;;;5019378;28;20201;-63